createdAt,value
2018-08-09T00:06:59.754Z,21.9
2018-08-09T00:16:58.995Z,21.7
2018-08-09T00:26:58.242Z,21.6
2018-08-09T00:36:57.489Z,21.6
2018-08-09T00:46:56.735Z,21.6
2018-08-09T00:56:55.985Z,21.6
2018-08-09T01:06:55.237Z,21.5
2018-08-09T01:16:54.474Z,21.4
2018-08-09T01:26:53.719Z,21.4
2018-08-09T01:36:52.968Z,21.3
2018-08-09T01:46:52.218Z,21.3
2018-08-09T01:56:51.458Z,21.2
2018-08-09T02:06:50.704Z,21.2
2018-08-09T02:16:49.950Z,21.1
2018-08-09T02:26:49.197Z,20.9
2018-08-09T02:36:48.447Z,20.9
2018-08-09T02:46:47.757Z,21.3
2018-08-09T02:56:46.934Z,21.8
2018-08-09T03:06:46.181Z,22.2
2018-08-09T03:16:45.426Z,22.4
2018-08-09T03:26:44.671Z,22.7
2018-08-09T03:36:43.922Z,22.9
2018-08-09T03:46:43.164Z,23.1
2018-08-09T03:56:42.416Z,23.1
2018-08-09T04:06:41.660Z,23.1
2018-08-09T04:16:41.007Z,23.2
2018-08-09T04:26:40.155Z,23.4
2018-08-09T04:36:39.403Z,23.6
2018-08-09T04:46:38.650Z,23.9
2018-08-09T04:56:37.899Z,24.3
2018-08-09T05:06:37.149Z,24.5
2018-08-09T05:16:36.392Z,24.8
2018-08-09T05:26:35.642Z,25
2018-08-09T05:36:34.892Z,25.1
2018-08-09T05:46:34.134Z,25.3
2018-08-09T05:56:33.383Z,25.6
2018-08-09T06:06:32.626Z,25.7
2018-08-09T06:16:31.876Z,25.9
2018-08-09T06:26:31.213Z,26.1
2018-08-09T06:36:30.367Z,26.2
2018-08-09T06:46:29.609Z,26.3
2018-08-09T06:56:28.856Z,26.4
2018-08-09T07:06:28.104Z,26.6
2018-08-09T07:16:27.351Z,26.8
2018-08-09T07:26:26.638Z,26.9
2018-08-09T07:36:25.865Z,27.1
2018-08-09T07:46:25.089Z,27.3
2018-08-09T07:56:24.334Z,27.4
2018-08-09T08:06:23.579Z,27.6
2018-08-09T08:16:22.829Z,27.6
2018-08-09T08:26:22.073Z,27.7
2018-08-09T08:36:21.322Z,27.8
2018-08-09T08:46:20.565Z,27.9
2018-08-09T08:56:19.812Z,28
2018-08-09T09:06:19.066Z,28.3
2018-08-09T09:16:18.301Z,28.4
2018-08-09T09:26:17.552Z,28.4
2018-08-09T09:36:16.796Z,28.6
2018-08-09T09:46:16.041Z,28.8
2018-08-09T09:56:15.300Z,28.8
2018-08-09T10:06:14.538Z,28.9
2018-08-09T10:16:13.788Z,29.1
2018-08-09T10:26:13.035Z,29.1
2018-08-09T10:36:12.291Z,29.1
2018-08-09T10:46:11.528Z,29.1
2018-08-09T10:56:10.778Z,29
2018-08-09T11:06:10.023Z,28.9
2018-08-09T11:16:09.272Z,28.9
2018-08-09T11:26:08.519Z,28.9
2018-08-09T11:36:07.770Z,28.9
2018-08-09T11:46:07.012Z,28.9
2018-08-09T11:56:06.291Z,28.9
2018-08-09T12:06:05.504Z,28.9
2018-08-09T12:16:04.763Z,29
2018-08-09T12:26:03.997Z,28.9
2018-08-09T12:36:03.241Z,28.9
2018-08-09T12:46:02.489Z,28.9
2018-08-09T12:56:01.734Z,28.8
2018-08-09T13:06:00.984Z,28.8
2018-08-09T13:16:00.227Z,28.8
2018-08-09T13:25:59.475Z,28.8
2018-08-09T13:35:58.725Z,28.7
2018-08-09T13:45:57.966Z,28.6
2018-08-09T13:55:57.213Z,28.6
2018-08-09T14:05:56.458Z,28.5
2018-08-09T14:15:55.708Z,28.5
2018-08-09T14:25:54.949Z,28.5
2018-08-09T14:35:54.197Z,28.4
2018-08-09T14:45:53.442Z,28.4
2018-08-09T14:55:52.695Z,28.4
2018-08-09T15:05:51.936Z,28.3
2018-08-09T15:15:51.183Z,28.3
2018-08-09T15:25:50.485Z,28.3
2018-08-09T15:35:49.734Z,28.3
2018-08-09T15:45:48.934Z,28.3
2018-08-09T15:55:48.193Z,28.2
2018-08-09T16:05:47.435Z,28.2
2018-08-09T16:15:46.679Z,28.1
2018-08-09T16:25:45.924Z,28.1
2018-08-09T16:35:45.174Z,28.1
2018-08-09T16:45:44.422Z,28
2018-08-09T16:55:43.665Z,27.9
2018-08-09T17:05:42.915Z,27.9
2018-08-09T17:15:42.164Z,27.9
2018-08-09T17:25:41.412Z,27.9
2018-08-09T17:35:40.656Z,27.8
2018-08-09T17:45:39.913Z,27.6
2018-08-09T17:55:39.152Z,27.4
2018-08-09T18:05:38.416Z,27.3
2018-08-09T18:15:37.660Z,27.1
2018-08-09T18:25:36.910Z,27
2018-08-09T18:35:36.159Z,26.8
2018-08-09T18:45:35.410Z,26.7
2018-08-09T18:55:34.658Z,26.6
2018-08-09T19:05:33.910Z,26.4
2018-08-09T19:15:33.158Z,26.3
2018-08-09T19:25:32.408Z,26.1
2018-08-09T19:35:31.656Z,25.9
2018-08-09T19:45:30.904Z,25.8
2018-08-09T19:55:30.150Z,25.7
2018-08-09T20:05:29.404Z,25.6
2018-08-09T20:15:28.646Z,25.5
2018-08-09T20:25:27.892Z,25.4
2018-08-09T20:35:27.189Z,25.4
2018-08-09T20:45:26.381Z,25.3
2018-08-09T20:55:25.640Z,25.2
2018-08-09T21:05:24.878Z,25.1
2018-08-09T21:15:24.235Z,25
2018-08-09T21:25:23.375Z,24.9
2018-08-09T21:35:22.619Z,24.9
2018-08-09T21:45:21.860Z,24.8
2018-08-09T21:55:21.109Z,24.7
2018-08-09T22:05:20.351Z,24.6
2018-08-09T22:15:19.648Z,24.4
2018-08-09T22:25:18.843Z,24.3
2018-08-09T22:35:18.087Z,24.1
2018-08-09T22:45:17.332Z,24.1
2018-08-09T22:55:16.580Z,24.1
2018-08-09T23:05:15.923Z,24.1
2018-08-09T23:15:15.168Z,24.1
2018-08-09T23:25:14.310Z,24
2018-08-09T23:35:13.556Z,23.9
2018-08-09T23:45:12.800Z,23.8
2018-08-09T23:55:12.044Z,23.6
